Time;durP1;ratioP1;P1;durP2;ratioP2;P2;SDS_P1;SDS_P2;PMS_P1;PMS_P2;Temp;Humidity;BMP_temperature;BMP_pressure;BME280_temperature;BME280_humidity;BME280_pressure;Samples;Min_cycle;Max_cycle;Signal;HPM_P1;HPM_P2
2022/08/21 00:00:31;;;;;;;8.00;6.50;;;;;;;17.40;69.56;100421.06;5073842;28;20059;-64
2022/08/21 00:03:05;;;;;;;10.45;7.40;;;;;;;17.38;69.74;100422.63;5073880;28;20057;-63
2022/08/21 00:05:36;;;;;;;9.35;7.82;;;;;;;17.34;70.04;100419.69;5072599;28;20048;-63
2022/08/21 00:08:04;;;;;;;9.68;5.82;;;;;;;17.30;70.11;100432.88;5092174;28;20059;-63
2022/08/21 00:10:32;;;;;;;8.48;6.45;;;;;;;17.31;69.97;100428.88;5087170;28;20044;-63
2022/08/21 00:13:01;;;;;;;8.02;6.15;;;;;;;17.33;69.89;100426.53;5073517;28;20048;-63
2022/08/21 00:15:32;;;;;;;8.43;5.63;;;;;;;17.28;69.99;100418.34;5073185;28;20040;-63
2022/08/21 00:17:59;;;;;;;12.23;6.70;;;;;;;17.31;69.89;100422.44;5073745;28;20057;-64
2022/08/21 00:20:27;;;;;;;8.07;6.45;;;;;;;17.29;69.85;100419.97;5073843;28;20416;-64
2022/08/21 00:22:54;;;;;;;9.63;6.30;;;;;;;17.15;70.01;100411.97;5071080;28;20052;-63
2022/08/21 00:25:25;;;;;;;8.48;6.50;;;;;;;17.15;70.00;100413.97;5073568;28;20052;-63
2022/08/21 00:27:56;;;;;;;8.73;6.30;;;;;;;17.14;69.96;100412.34;5072907;28;20045;-63
2022/08/21 00:30:25;;;;;;;11.52;7.15;;;;;;;17.13;69.93;100410.69;5073184;28;20500;-63
2022/08/21 00:32:56;;;;;;;8.68;5.90;;;;;;;17.12;69.97;100406.25;5073001;28;20405;-63
2022/08/21 00:35:29;;;;;;;10.05;6.78;;;;;;;17.10;70.18;100408.63;5073433;28;20044;-64
2022/08/21 00:37:57;;;;;;;7.47;6.38;;;;;;;17.10;70.00;100409.44;5089187;28;20480;-63
2022/08/21 00:40:28;;;;;;;8.40;6.85;;;;;;;17.09;70.48;100409.78;5088574;28;20048;-63
2022/08/21 00:42:55;;;;;;;9.85;6.60;;;;;;;17.11;69.85;100396.16;5073167;28;20060;-63
2022/08/21 00:45:24;;;;;;;9.63;6.43;;;;;;;17.02;69.99;100394.34;5072991;28;20064;-63
2022/08/21 00:47:54;;;;;;;9.07;6.50;;;;;;;17.04;69.77;100397.59;5072730;28;20049;-63
2022/08/21 00:50:23;;;;;;;9.40;7.43;;;;;;;16.93;70.13;100399.31;5071766;28;20512;-63
2022/08/21 00:52:52;;;;;;;7.88;6.45;;;;;;;16.93;70.21;100393.69;5077402;28;20417;-63
2022/08/21 00:55:22;;;;;;;8.65;7.03;;;;;;;16.91;70.58;100393.22;5072858;28;20052;-63
2022/08/21 00:57:55;;;;;;;13.20;7.22;;;;;;;16.91;70.62;100393.22;5072209;28;20489;-63
2022/08/21 01:00:27;;;;;;;8.35;7.05;;;;;;;16.90;70.61;100399.22;5073021;28;20048;-63
2022/08/21 01:02:57;;;;;;;11.13;7.38;;;;;;;16.92;70.63;100394.03;5071732;28;20060;-63
2022/08/21 01:05:27;;;;;;;;;;;;;;;16.87;70.85;100395.13;5079216;28;20055;-63
2022/08/21 01:07:56;;;;;;;8.55;6.55;;;;;;;16.86;70.66;100389.84;5079104;28;19924;-64
2022/08/21 01:10:24;;;;;;;9.23;6.68;;;;;;;16.82;70.79;100384.97;5072296;28;20052;-64
2022/08/21 01:12:54;;;;;;;9.57;6.80;;;;;;;16.84;70.67;100385.41;5071761;28;20064;-64
2022/08/21 01:15:23;;;;;;;9.38;6.70;;;;;;;16.80;70.90;100376.06;5072705;28;20060;-63
2022/08/21 01:17:54;;;;;;;7.82;6.40;;;;;;;16.78;70.77;100383.19;5072292;28;20060;-63
2022/08/21 01:20:23;;;;;;;8.90;6.97;;;;;;;16.79;70.83;100393.25;5072710;28;20063;-63
2022/08/21 01:22:52;;;;;;;10.02;7.28;;;;;;;16.80;70.84;100392.94;5075818;28;20060;-64
2022/08/21 01:25:20;;;;;;;8.07;6.87;;;;;;;16.81;71.21;100388.13;5072457;28;20055;-63
2022/08/21 01:27:50;;;;;;;10.50;6.63;;;;;;;16.85;71.04;100391.84;5071836;28;20493;-63
2022/08/21 01:30:21;;;;;;;9.80;6.40;;;;;;;16.90;70.87;100402.03;5072346;28;20063;-63
2022/08/21 01:32:49;;;;;;;9.32;6.10;;;;;;;16.93;70.99;100396.50;5072094;28;20044;-63
2022/08/21 01:35:18;;;;;;;9.43;6.88;;;;;;;16.99;70.94;100397.88;5072424;28;20057;-63
2022/08/21 01:37:46;;;;;;;6.90;5.68;;;;;;;17.02;70.76;100388.69;5082726;28;20052;-64
2022/08/21 01:40:19;;;;;;;9.80;6.60;;;;;;;17.11;70.79;100396.16;5072214;28;20064;-63
2022/08/21 01:42:48;;;;;;;10.63;6.97;;;;;;;17.12;70.28;100395.00;5071710;28;20059;-63
2022/08/21 01:45:16;;;;;;;7.93;6.00;;;;;;;17.11;70.28;100402.59;5072429;28;20404;-63
2022/08/21 01:47:45;;;;;;;9.13;6.65;;;;;;;17.18;70.22;100402.81;5071920;28;20048;-63
2022/08/21 01:50:17;;;;;;;9.55;7.03;;;;;;;17.19;70.25;100398.81;5072274;28;20075;-64
2022/08/21 01:52:45;;;;;;;13.35;7.78;;;;;;;17.22;70.29;100394.47;5088203;28;20064;-64
2022/08/21 01:55:15;;;;;;;10.40;7.30;;;;;;;17.29;70.12;100382.56;5074131;28;20049;-64
2022/08/21 01:57:42;;;;;;;;;;;;;;;17.36;70.05;100386.38;5072079;28;20056;-63
2022/08/21 02:00:12;;;;;;;9.43;6.50;;;;;;;17.41;70.05;100386.13;5072097;28;20272;-63
2022/08/21 02:02:40;;;;;;;9.85;7.28;;;;;;;17.48;70.11;100382.66;5074122;28;20052;-63
2022/08/21 02:05:10;;;;;;;10.55;7.35;;;;;;;17.56;69.79;100389.31;5075706;28;20056;-63
2022/08/21 02:07:39;;;;;;;11.93;7.97;;;;;;;17.50;69.63;100380.31;5080152;28;20067;-63
2022/08/21 02:10:12;;;;;;;10.02;8.20;;;;;;;17.60;69.88;100388.22;5083476;28;20056;-63
2022/08/21 02:12:41;;;;;;;8.48;7.15;;;;;;;17.65;69.41;100376.66;5075713;28;20408;-64
2022/08/21 02:15:10;;;;;;;10.35;7.70;;;;;;;17.72;69.01;100376.00;5075886;28;20056;-64
2022/08/21 02:17:42;;;;;;;9.35;7.82;;;;;;;17.72;69.29;100378.81;5075867;28;20059;-63
2022/08/21 02:20:11;;;;;;;8.25;7.30;;;;;;;17.79;69.00;100373.38;5075903;28;20055;-69
2022/08/21 02:22:38;;;;;;;12.05;8.55;;;;;;;17.80;68.70;100372.19;5087744;28;20067;-69
2022/08/21 02:25:07;;;;;;;10.60;7.43;;;;;;;17.82;68.72;100374.63;5087421;28;20059;-69
2022/08/21 02:27:45;;;;;;;10.73;7.55;;;;;;;17.86;68.72;100364.28;5075263;28;20049;-69
2022/08/21 02:30:15;;;;;;;10.63;7.55;;;;;;;17.89;68.45;100371.19;5075531;28;20049;-70
2022/08/21 02:32:45;;;;;;;10.65;7.90;;;;;;;17.92;68.27;100373.28;5075529;28;20053;-69
2022/08/21 02:35:13;;;;;;;10.82;7.15;;;;;;;17.92;68.24;100374.09;5074705;28;20507;-69
2022/08/21 02:37:45;;;;;;;11.02;8.00;;;;;;;17.90;68.28;100370.03;5095489;28;20052;-69
2022/08/21 02:40:14;;;;;;;10.43;7.53;;;;;;;17.89;68.25;100369.22;5090547;28;20044;-70
2022/08/21 02:42:46;;;;;;;8.77;7.72;;;;;;;17.88;68.21;100373.19;5075155;28;20059;-69
2022/08/21 02:45:14;;;;;;;9.80;7.95;;;;;;;17.86;68.94;100364.28;5075177;28;20044;-69
2022/08/21 02:47:48;;;;;;;9.75;7.40;;;;;;;17.88;68.49;100369.56;5074650;28;20060;-70
2022/08/21 02:50:19;;;;;;;9.68;7.22;;;;;;;17.87;68.48;100367.94;5074452;28;20051;-69
2022/08/21 02:52:48;;;;;;;11.13;8.32;;;;;;;17.82;68.60;100369.84;5074712;28;20067;-68
2022/08/21 02:55:18;;;;;;;8.75;7.47;;;;;;;17.80;68.58;100372.19;5075142;28;20057;-69
2022/08/21 02:57:47;;;;;;;10.57;8.00;;;;;;;17.79;68.42;100364.91;5074875;28;20056;-68
2022/08/21 03:00:16;;;;;;;8.48;7.35;;;;;;;17.76;68.68;100364.81;5075041;28;20059;-69
2022/08/21 03:02:46;;;;;;;9.45;7.50;;;;;;;17.71;69.04;100363.13;5074202;28;20060;-69
2022/08/21 03:05:15;;;;;;;11.93;8.73;;;;;;;17.70;68.68;100361.50;5082476;28;20127;-70
2022/08/21 03:07:43;;;;;;;10.55;7.53;;;;;;;17.62;68.68;100354.84;5075586;28;20048;-69
2022/08/21 03:10:11;;;;;;;10.82;8.25;;;;;;;17.58;69.05;100364.41;5074965;28;20048;-69
2022/08/21 03:12:38;;;;;;;12.13;8.02;;;;;;;17.52;69.04;100360.22;5074575;28;20048;-70
2022/08/21 03:15:10;;;;;;;8.98;8.02;;;;;;;17.45;69.19;100352.44;5074912;28;20088;-70
2022/08/21 03:17:37;;;;;;;9.98;8.15;;;;;;;17.37;69.14;100365.50;5074371;28;20052;-69
2022/08/21 03:20:06;;;;;;;9.23;7.43;;;;;;;17.32;69.36;100356.50;5073045;28;20060;-69
2022/08/21 03:22:33;;;;;;;9.73;7.35;;;;;;;17.24;69.50;100355.53;5081473;28;20052;-70
2022/08/21 03:25:01;;;;;;;13.10;10.63;;;;;;;17.13;69.81;100371.28;5074519;28;20063;-69
2022/08/21 03:27:30;;;;;;;10.38;7.97;;;;;;;17.03;69.90;100364.22;5074367;28;20044;-70
2022/08/21 03:29:58;;;;;;;10.50;8.10;;;;;;;16.99;70.27;100358.47;5074196;28;20496;-70
2022/08/21 03:32:28;;;;;;;11.68;9.20;;;;;;;16.94;70.27;100357.91;5074382;28;20390;-70
2022/08/21 03:34:56;;;;;;;10.57;7.63;;;;;;;16.88;70.34;100359.34;5079884;28;20052;-70
2022/08/21 03:37:23;;;;;;;9.07;7.28;;;;;;;16.86;70.07;100362.53;5086944;28;20053;-69
2022/08/21 03:39:52;;;;;;;10.70;7.60;;;;;;;16.79;70.65;100359.50;5073943;28;20052;-70
2022/08/21 03:42:19;;;;;;;11.73;7.70;;;;;;;16.70;70.67;100353.22;5074146;28;20066;-70
2022/08/21 03:44:46;;;;;;;11.55;8.20;;;;;;;16.66;70.41;100357.94;5073899;28;20052;-69
2022/08/21 03:47:14;;;;;;;8.70;7.80;;;;;;;16.59;70.62;100358.56;5073900;28;20064;-70
2022/08/21 03:49:43;;;;;;;11.52;8.07;;;;;;;16.54;70.84;100355.97;5082160;28;20484;-70
2022/08/21 03:52:10;;;;;;;8.77;7.55;;;;;;;16.48;71.06;100358.22;5093346;28;20382;-70
2022/08/21 03:54:39;;;;;;;9.15;7.80;;;;;;;16.43;71.15;100364.09;5073928;28;20053;-70
2022/08/21 03:57:06;;;;;;;9.83;7.50;;;;;;;16.39;71.37;100364.00;5073754;28;20053;-70
2022/08/21 03:59:36;;;;;;;10.05;7.70;;;;;;;16.35;71.26;100365.06;5073406;28;20092;-70
2022/08/21 04:02:05;;;;;;;9.95;7.95;;;;;;;16.32;71.14;100357.38;5073615;28;20060;-70
2022/08/21 04:04:34;;;;;;;10.80;9.00;;;;;;;16.27;71.49;100369.66;5086713;28;20059;-70
2022/08/21 04:07:04;;;;;;;12.77;8.02;;;;;;;16.25;71.47;100377.63;5093921;28;20059;-70
2022/08/21 04:09:31;;;;;;;;;;;;;;;16.13;71.85;100374.88;5077850;28;20048;-70
2022/08/21 04:12:00;;;;;;;11.68;7.97;;;;;;;16.07;71.84;100371.47;5073456;28;19924;-70
2022/08/21 04:14:27;;;;;;;11.18;8.73;;;;;;;16.08;71.78;100372.28;5073160;28;20071;-69
2022/08/21 04:16:55;;;;;;;10.43;8.73;;;;;;;16.07;71.91;100371.47;5073444;28;20056;-70
2022/08/21 04:19:23;;;;;;;10.52;8.32;;;;;;;16.03;72.09;100373.34;5071951;28;20048;-70
2022/08/21 04:21:50;;;;;;;13.10;9.85;;;;;;;16.01;72.00;100382.13;5072932;28;20413;-70
2022/08/21 04:24:19;;;;;;;10.05;8.10;;;;;;;16.01;71.98;100381.31;5072565;28;20056;-70
2022/08/21 04:26:46;;;;;;;9.20;7.87;;;;;;;15.93;72.30;100377.44;5073236;28;20056;-70
2022/08/21 04:29:14;;;;;;;9.32;7.43;;;;;;;15.91;72.21;100379.78;5072641;28;20044;-70
2022/08/21 04:31:43;;;;;;;9.60;8.07;;;;;;;15.90;72.22;100382.97;5072903;28;20079;-68
2022/08/21 04:34:10;;;;;;;10.80;7.68;;;;;;;15.89;71.96;100381.31;5086528;28;20048;-70
2022/08/21 04:36:38;;;;;;;11.88;9.52;;;;;;;15.80;72.43;100384.25;5072910;28;20083;-70
2022/08/21 04:39:05;;;;;;;10.98;8.20;;;;;;;15.81;72.01;100389.53;5072761;28;20049;-70
2022/08/21 04:41:34;;;;;;;8.77;7.78;;;;;;;15.78;72.29;100378.19;5073193;28;20056;-70
2022/08/21 04:44:01;;;;;;;8.77;7.87;;;;;;;15.77;72.13;100380.19;5072688;28;20420;-69
2022/08/21 04:46:28;;;;;;;12.27;7.50;;;;;;;15.71;72.29;100386.34;5071226;28;20063;-68
2022/08/21 04:48:56;;;;;;;10.18;6.78;;;;;;;15.74;72.26;100380.84;5091476;28;20048;-70
2022/08/21 04:51:26;;;;;;;11.55;7.53;;;;;;;15.75;71.76;100376.09;5072702;28;20060;-70
2022/08/21 04:53:57;;;;;;;9.80;7.20;;;;;;;15.69;72.28;100383.88;5072541;28;20056;-70
2022/08/21 04:56:28;;;;;;;8.73;6.95;;;;;;;15.71;72.31;100377.94;5072398;28;20485;-70
2022/08/21 04:59:02;;;;;;;11.13;8.02;;;;;;;15.70;72.32;100391.13;5072404;28;20052;-70
2022/08/21 05:01:33;;;;;;;9.07;6.80;;;;;;;15.71;72.39;100381.53;5077124;28;20055;-70
2022/08/21 05:04:04;;;;;;;10.63;7.45;;;;;;;15.69;72.56;100391.50;5091255;28;20067;-70
2022/08/21 05:06:34;;;;;;;9.25;7.32;;;;;;;15.74;72.63;100391.28;5075029;28;20053;-70
2022/08/21 05:09:02;;;;;;;10.23;7.15;;;;;;;15.72;73.01;100388.00;5072349;28;20059;-69
2022/08/21 05:11:30;;;;;;;9.95;7.05;;;;;;;15.77;72.93;100385.78;5071783;28;20063;-69
2022/08/21 05:13:59;;;;;;;9.88;7.63;;;;;;;15.82;72.74;100385.53;5072129;28;20064;-70
2022/08/21 05:16:26;;;;;;;10.50;7.80;;;;;;;15.86;72.47;100382.84;5071929;28;20049;-69
2022/08/21 05:18:53;;;;;;;9.65;8.68;;;;;;;15.80;72.71;100392.69;5084270;28;20056;-70
2022/08/21 05:21:21;;;;;;;10.60;8.10;;;;;;;15.90;72.73;100385.78;5080594;28;20052;-70
2022/08/21 05:23:48;;;;;;;10.73;7.97;;;;;;;15.95;72.69;100396.78;5071874;28;20382;-70
2022/08/21 05:26:16;;;;;;;10.68;7.95;;;;;;;15.99;72.56;100395.69;5078725;28;20039;-70
2022/08/21 05:28:43;;;;;;;8.02;7.20;;;;;;;16.07;72.53;100393.13;5092089;28;20052;-70
2022/08/21 05:31:12;;;;;;;10.75;7.15;;;;;;;16.10;72.34;100398.84;5082573;28;20047;-70
2022/08/21 05:33:39;;;;;;;14.13;7.70;;;;;;;16.13;72.57;100400.97;5071663;28;20052;-70
2022/08/21 05:36:07;;;;;;;9.43;6.97;;;;;;;16.19;72.48;100402.34;5089444;28;20044;-69
2022/08/21 05:38:34;;;;;;;8.15;6.72;;;;;;;16.26;72.12;100401.75;5091836;28;20056;-70
2022/08/21 05:41:02;;;;;;;9.48;7.40;;;;;;;16.30;72.02;100394.25;5088376;28;20048;-70
2022/08/21 05:43:29;;;;;;;10.45;7.35;;;;;;;16.36;72.05;100394.84;5071998;28;20056;-70
2022/08/21 05:45:56;;;;;;;8.63;6.22;;;;;;;16.43;71.88;100395.03;5071533;28;20053;-69
2022/08/21 05:48:25;;;;;;;7.78;5.68;;;;;;;16.53;71.94;100391.72;5072031;28;20071;-70
2022/08/21 05:50:54;;;;;;;8.30;6.53;;;;;;;16.65;71.71;100393.66;5074418;28;20464;-68
2022/08/21 05:53:24;;;;;;;8.80;6.25;;;;;;;16.78;71.34;100397.25;5072064;28;20076;-68
2022/08/21 05:55:52;;;;;;;10.27;6.35;;;;;;;16.90;71.31;100385.13;5071671;28;20048;-69
2022/08/21 05:58:22;;;;;;;9.73;6.93;;;;;;;16.94;71.01;100386.06;5071737;28;20064;-67
2022/08/21 06:00:51;;;;;;;8.00;7.00;;;;;;;17.11;70.75;100390.53;5071774;28;20063;-64
2022/08/21 06:03:21;;;;;;;10.33;8.17;;;;;;;17.25;70.20;100388.09;5071078;28;20056;-69
2022/08/21 06:05:50;;;;;;;11.57;7.20;;;;;;;17.35;70.06;100387.56;5078494;28;20474;-69
2022/08/21 06:08:18;;;;;;;10.25;7.13;;;;;;;17.48;69.61;100384.66;5076605;28;20056;-68
2022/08/21 06:10:46;;;;;;;9.82;7.65;;;;;;;17.56;69.58;100383.66;5071738;28;20489;-68
2022/08/21 06:13:14;;;;;;;8.80;6.88;;;;;;;17.69;69.22;100385.19;5071217;28;20053;-69
2022/08/21 06:15:42;;;;;;;8.93;7.30;;;;;;;17.83;68.77;100387.59;5071210;28;20059;-69
2022/08/21 06:18:10;;;;;;;7.25;6.50;;;;;;;17.95;68.37;100389.44;5079391;28;20063;-69
2022/08/21 06:20:38;;;;;;;10.77;7.82;;;;;;;18.04;68.19;100381.63;5092050;28;20404;-68
2022/08/21 06:23:06;;;;;;;11.75;7.90;;;;;;;18.14;67.88;100383.88;5082342;28;20079;-69
2022/08/21 06:25:34;;;;;;;9.93;7.07;;;;;;;18.23;67.76;100394.94;5071827;28;20057;-69
2022/08/21 06:28:02;;;;;;;11.48;8.02;;;;;;;18.24;67.33;100385.28;5070875;28;20824;-70
2022/08/21 06:30:30;;;;;;;9.33;6.77;;;;;;;18.32;67.16;100387.09;5071625;28;20446;-69
2022/08/21 06:32:57;;;;;;;10.65;7.72;;;;;;;18.39;67.33;100390.03;5081603;28;20490;-69
2022/08/21 06:35:25;;;;;;;13.40;7.32;;;;;;;18.49;67.07;100388.66;5071688;28;20401;-69
2022/08/21 06:37:52;;;;;;;10.80;7.88;;;;;;;18.57;67.15;100384.78;5070913;28;20048;-69
2022/08/21 06:40:21;;;;;;;10.23;6.75;;;;;;;18.66;66.49;100385.38;5071529;28;20049;-70
2022/08/21 06:42:48;;;;;;;10.48;6.97;;;;;;;18.75;66.44;100379.53;5071389;28;20055;-70
2022/08/21 06:45:16;;;;;;;8.68;7.22;;;;;;;18.85;66.39;100380.94;5071195;28;20485;-68
2022/08/21 06:47:43;;;;;;;8.63;7.07;;;;;;;18.94;66.30;100375.06;5087055;28;20056;-70
2022/08/21 06:50:11;;;;;;;10.57;7.72;;;;;;;19.04;65.69;100369.63;5074315;28;20049;-70
2022/08/21 06:52:39;;;;;;;11.10;7.38;;;;;;;19.15;65.83;100380.31;5094976;28;20055;-70
2022/08/21 06:55:08;;;;;;;10.85;6.97;;;;;;;19.21;65.60;100375.97;5090614;28;20391;-69
2022/08/21 06:57:37;;;;;;;;;;;;;;;19.23;66.02;100367.94;5095217;28;20422;-69
2022/08/21 07:00:05;;;;;;;7.22;6.22;;;;;;;19.32;66.23;100368.53;5078729;28;19920;-70
2022/08/21 07:02:33;;;;;;;11.75;7.53;;;;;;;19.41;65.89;100383.19;5074533;28;20074;-71
2022/08/21 07:05:01;;;;;;;12.82;7.10;;;;;;;19.43;65.51;100383.66;5039108;28;20048;-70
2022/08/21 07:07:28;;;;;;;10.07;6.97;;;;;;;19.60;65.23;100373.84;5054568;28;20056;-70
2022/08/21 07:09:57;;;;;;;10.18;6.53;;;;;;;19.76;65.01;100372.91;5029888;28;20041;-70
2022/08/21 07:12:25;;;;;;;10.70;7.20;;;;;;;19.85;64.97;100374.28;5027444;28;20045;-68
2022/08/21 07:14:54;;;;;;;9.90;6.27;;;;;;;20.04;64.82;100381.81;5032494;28;20065;-70
2022/08/21 07:17:21;;;;;;;7.28;5.90;;;;;;;20.25;64.31;100378.47;5030035;28;20048;-68
2022/08/21 07:19:51;;;;;;;8.70;5.55;;;;;;;20.48;65.47;100375.56;5031491;28;20057;-53
2022/08/21 07:22:21;;;;;;;6.95;5.85;;;;;;;20.77;64.89;100369.47;5029140;28;20494;-50
2022/08/21 07:24:48;;;;;;;11.13;6.55;;;;;;;21.17;62.64;100374.34;5031527;28;20057;-53
2022/08/21 07:27:15;;;;;;;8.63;5.30;;;;;;;22.00;60.05;100373.03;5031932;28;20585;-52
2022/08/21 07:29:43;;;;;;;7.63;5.32;;;;;;;22.99;56.60;100378.78;5032964;28;20409;-53
2022/08/21 07:32:11;;;;;;;6.70;4.78;;;;;;;24.00;54.01;100365.50;5028771;28;20056;-52
2022/08/21 07:34:39;;;;;;;8.48;5.25;;;;;;;25.09;50.75;100364.66;5032128;28;20062;-54
2022/08/21 07:37:06;;;;;;;6.20;4.65;;;;;;;25.88;48.03;100358.38;5038211;28;20053;-53
2022/08/21 07:39:33;;;;;;;5.97;4.55;;;;;;;25.84;46.35;100366.97;5038227;28;20059;-54
2022/08/21 07:42:00;;;;;;;7.72;4.45;;;;;;;26.12;46.09;100359.38;5032151;28;20520;-52
2022/08/21 07:44:28;;;;;;;9.05;5.15;;;;;;;27.72;43.16;100366.19;5032633;28;20052;-53
2022/08/21 07:46:55;;;;;;;9.13;5.53;;;;;;;28.21;41.61;100360.00;5032288;28;20050;-53
2022/08/21 07:49:24;;;;;;;8.77;5.13;;;;;;;29.41;39.33;100360.69;5031154;28;20444;-52
2022/08/21 07:51:51;;;;;;;8.75;5.15;;;;;;;30.46;37.20;100359.59;5033703;28;20057;-53
2022/08/21 07:54:18;;;;;;;7.03;4.47;;;;;;;31.10;35.26;100351.13;5033539;28;20064;-54
2022/08/21 07:56:46;;;;;;;6.50;3.75;;;;;;;31.40;34.72;100348.94;5032325;28;20045;-54
2022/08/21 07:59:14;;;;;;;7.35;4.10;;;;;;;31.79;34.30;100352.56;5031582;28;20060;-53
2022/08/21 08:01:41;;;;;;;5.77;3.73;;;;;;;32.84;32.23;100361.13;5033409;28;20054;-53
2022/08/21 08:04:08;;;;;;;8.45;4.03;;;;;;;34.08;30.25;100336.22;5053582;28;20053;-54
2022/08/21 08:06:37;;;;;;;6.90;4.30;;;;;;;35.13;28.45;100338.78;5075550;28;20048;-53
2022/08/21 08:09:04;;;;;;;6.38;3.92;;;;;;;35.82;28.02;100351.50;5070649;28;20052;-54
2022/08/21 08:11:32;;;;;;;7.85;4.18;;;;;;;35.93;26.89;100356.72;5071042;28;20052;-53
2022/08/21 08:14:00;;;;;;;7.10;4.18;;;;;;;34.81;28.24;100343.25;5072248;28;20052;-54
2022/08/21 08:16:28;;;;;;;8.27;4.10;;;;;;;35.40;27.74;100348.66;5070767;28;20048;-55
2022/08/21 08:18:55;;;;;;;7.35;3.83;;;;;;;36.40;26.64;100343.50;5074108;28;20059;-54
2022/08/21 08:21:23;;;;;;;7.22;3.92;;;;;;;36.74;25.98;100347.03;5071530;28;20390;-54
2022/08/21 08:23:52;;;;;;;6.55;3.63;;;;;;;36.81;25.01;100340.03;5070868;28;20056;-53
2022/08/21 08:26:19;;;;;;;10.60;4.82;;;;;;;36.16;25.11;100337.72;5069825;28;20057;-54
2022/08/21 08:28:47;;;;;;;8.37;4.87;;;;;;;33.71;28.48;100337.00;5071991;28;20473;-53
2022/08/21 08:31:14;;;;;;;5.70;4.20;;;;;;;35.01;26.94;100331.94;5075414;28;20487;-52
2022/08/21 08:33:42;;;;;;;6.75;4.28;;;;;;;36.56;25.53;100319.78;5068353;28;20055;-53
2022/08/21 08:36:15;;;;;;;7.00;4.50;;;;;;;34.04;27.49;100329.78;5071003;28;20060;-53
2022/08/21 08:38:42;;;;;;;7.55;3.42;;;;;;;34.50;27.38;100326.88;5081845;28;20063;-53
2022/08/21 08:41:15;;;;;;;8.45;4.00;;;;;;;34.73;25.93;100329.13;5092599;28;20044;-53
2022/08/21 08:43:50;;;;;;;6.45;4.00;;;;;;;34.26;26.79;100333.34;5072705;28;20045;-54
2022/08/21 08:46:20;;;;;;;6.95;3.50;;;;;;;32.99;28.55;100324.69;5069328;28;20053;-53
2022/08/21 08:48:53;;;;;;;6.45;3.80;;;;;;;34.38;26.90;100325.78;5071107;28;20411;-66
2022/08/21 08:51:26;;;;;;;9.30;3.63;;;;;;;35.08;25.76;100325.00;5069215;28;20044;-65
2022/08/21 08:53:59;;;;;;;7.03;3.63;;;;;;;33.66;26.74;100322.38;5070614;28;20048;-66
2022/08/21 08:56:37;;;;;;;6.07;2.80;;;;;;;32.75;28.42;100333.84;5070771;28;20048;-65
2022/08/21 08:59:12;;;;;;;4.88;3.00;;;;;;;32.63;28.38;100328.94;5068029;28;20051;-66
2022/08/21 09:01:43;;;;;;;5.32;2.92;;;;;;;33.43;27.54;100323.72;5070606;28;20493;-66
2022/08/21 09:04:13;;;;;;;8.52;3.28;;;;;;;35.02;25.49;100319.06;5069909;28;20055;-66
2022/08/21 09:06:59;;;;;;;6.28;2.88;;;;;;;34.31;25.69;100321.16;5063715;28;20056;-66
2022/08/21 09:09:35;;;;;;;5.30;2.85;;;;;;;33.29;26.65;100325.94;5077514;28;20052;-66
2022/08/21 09:12:10;;;;;;;6.82;3.10;;;;;;;32.43;28.08;100332.19;5068955;28;20040;-65
2022/08/21 09:14:53;;;;;;;9.35;3.65;;;;;;;32.93;27.87;100327.38;5069028;28;20468;-65
2022/08/21 09:17:34;;;;;;;6.07;3.38;;;;;;;34.61;26.44;100317.69;5072505;28;20052;-66
2022/08/21 09:20:17;;;;;;;7.00;3.55;;;;;;;33.93;25.84;100319.50;5070139;28;20052;-65
2022/08/21 09:23:01;;;;;;;6.72;3.03;;;;;;;33.99;26.74;100308.09;5063888;28;20048;-65
2022/08/21 09:25:33;;;;;;;6.00;3.75;;;;;;;33.82;26.75;100303.94;5071063;28;20048;-65
2022/08/21 09:28:02;;;;;;;7.53;3.40;;;;;;;34.65;25.04;100307.63;5070896;28;20055;-65
2022/08/21 09:30:33;;;;;;;7.80;3.00;;;;;;;35.18;24.32;100303.41;5070523;28;20056;-67
2022/08/21 09:33:00;;;;;;;7.53;2.70;;;;;;;36.90;22.52;100310.91;5069168;28;20075;-65
2022/08/21 09:35:28;;;;;;;6.05;2.45;;;;;;;38.49;20.71;100300.09;5069135;28;20048;-64
2022/08/21 09:37:59;;;;;;;7.50;2.40;;;;;;;39.93;19.24;100295.06;5070752;28;20436;-66
2022/08/21 09:40:34;;;;;;;6.55;2.63;;;;;;;41.05;18.19;100293.66;5069568;28;20055;-66
2022/08/21 09:43:06;;;;;;;5.22;2.33;;;;;;;41.49;17.79;100297.06;5070237;28;20052;-65
2022/08/21 09:45:36;;;;;;;5.90;2.60;;;;;;;41.91;16.78;100295.06;5068510;28;20408;-64
2022/08/21 09:48:12;;;;;;;5.18;2.35;;;;;;;41.81;17.63;100293.75;5072950;28;20510;-64
2022/08/21 09:50:40;;;;;;;4.93;2.30;;;;;;;42.66;16.72;100289.03;5070645;28;20049;-65
2022/08/21 09:53:18;;;;;;;5.40;2.17;;;;;;;43.32;15.40;100299.91;5069123;28;20052;-64
2022/08/21 09:58:40;;;;;;;4.55;2.30;;;;;;;44.17;14.49;100282.09;5075766;28;19932;-64
2022/08/21 10:01:13;;;;;;;4.45;2.42;;;;;;;43.56;14.84;100293.25;5069565;28;20056;-63
2022/08/21 10:03:40;;;;;;;6.32;2.70;;;;;;;43.48;14.75;100287.19;5065708;28;20060;-65
2022/08/21 10:06:10;;;;;;;6.68;2.60;;;;;;;43.37;14.59;100282.25;5069479;28;20048;-65
2022/08/21 10:08:41;;;;;;;4.93;2.40;;;;;;;42.31;15.54;100299.38;5070547;28;20049;-64
2022/08/21 10:11:13;;;;;;;4.38;2.15;;;;;;;42.13;16.13;100285.41;5069136;28;20115;-63
2022/08/21 10:13:53;;;;;;;5.88;2.40;;;;;;;41.08;16.47;100283.06;5070390;28;20076;-64
2022/08/21 10:16:34;;;;;;;4.80;2.33;;;;;;;39.82;17.58;100273.78;5068643;28;20048;-64
2022/08/21 10:19:14;;;;;;;5.47;2.22;;;;;;;40.42;17.49;100274.53;5075664;28;20063;-63
2022/08/21 10:21:51;;;;;;;6.15;2.83;;;;;;;41.21;17.23;100274.53;5069877;28;20055;-64
2022/08/21 10:24:27;;;;;;;4.00;2.22;;;;;;;41.47;17.22;100277.13;5072406;28;20052;-64
2022/08/21 10:27:03;;;;;;;6.82;2.78;;;;;;;41.98;16.59;100266.03;5073724;28;20049;-63
2022/08/21 10:29:44;;;;;;;4.68;2.38;;;;;;;42.88;15.55;100263.81;5074132;28;20067;-64
2022/08/21 10:32:38;;;;;;;5.32;2.45;;;;;;;42.62;15.30;100265.09;5076368;28;20052;-64
2022/08/21 10:35:13;;;;;;;5.32;2.13;;;;;;;43.29;15.25;100269.56;5084890;28;20052;-63
2022/08/21 10:37:56;;;;;;;3.20;1.65;;;;;;;44.17;14.07;100264.47;5067358;28;20064;-64
2022/08/21 10:40:28;;;;;;;6.80;2.42;;;;;;;44.93;14.36;100265.13;5073002;28;20056;-65
2022/08/21 10:43:08;;;;;;;3.67;2.38;;;;;;;45.92;13.58;100265.03;5073310;28;20064;-64
2022/08/21 10:45:46;;;;;;;4.65;1.77;;;;;;;46.50;12.93;100256.50;5066577;28;20055;-64
2022/08/21 10:48:24;;;;;;;4.85;2.75;;;;;;;45.50;13.26;100256.00;5072803;28;20064;-64
2022/08/21 10:50:55;;;;;;;8.35;2.42;;;;;;;45.71;13.76;100259.06;5067768;28;20488;-64
2022/08/21 10:53:38;;;;;;;4.75;2.20;;;;;;;45.97;13.81;100257.41;5071826;28;20409;-63
2022/08/21 10:56:16;;;;;;;7.28;2.72;;;;;;;45.96;13.24;100252.91;5058485;28;20067;-65
2022/08/21 10:58:50;;;;;;;3.67;2.28;;;;;;;46.04;13.64;100244.19;5072897;28;20071;-63
2022/08/21 11:01:27;;;;;;;4.28;2.10;;;;;;;46.62;13.31;100248.16;5070095;28;20079;-64
2022/08/21 11:04:08;;;;;;;5.05;2.47;;;;;;;46.58;12.87;100251.47;5074695;28;20056;-63
2022/08/21 11:06:40;;;;;;;4.85;2.25;;;;;;;46.49;13.24;100249.00;5071026;28;20052;-64
2022/08/21 11:09:13;;;;;;;5.88;2.58;;;;;;;46.94;12.97;100239.03;5069855;28;20481;-63
2022/08/21 11:11:45;;;;;;;5.00;2.38;;;;;;;47.31;12.09;100237.72;5071126;28;20489;-64
2022/08/21 11:14:24;;;;;;;3.47;2.00;;;;;;;47.39;12.51;100234.81;5071187;28;20044;-62
2022/08/21 11:17:01;;;;;;;3.28;2.30;;;;;;;47.14;12.60;100243.28;5066429;28;20055;-60
2022/08/21 11:19:31;;;;;;;;;;;;;;;47.13;12.57;100230.69;5071418;28;20052;-62
2022/08/21 11:22:07;;;;;;;5.80;2.72;;;;;;;47.48;12.27;100231.31;5069781;28;19924;-62
2022/08/21 11:24:44;;;;;;;3.83;2.20;;;;;;;47.63;12.34;100238.69;5078111;28;20053;-64
2022/08/21 11:27:21;;;;;;;4.68;2.35;;;;;;;47.76;11.57;100235.63;5073544;28;20052;-63
2022/08/21 11:29:55;;;;;;;5.68;2.70;;;;;;;47.49;11.92;100232.91;5072461;28;20096;-62
2022/08/21 11:32:41;;;;;;;4.70;2.22;;;;;;;47.18;12.16;100234.88;5083185;28;20385;-62
2022/08/21 11:35:16;;;;;;;4.07;2.20;;;;;;;47.00;12.11;100235.91;5073900;28;20477;-62
2022/08/21 11:37:55;;;;;;;4.25;2.28;;;;;;;46.85;12.25;100233.63;5073819;28;20477;-61
2022/08/21 11:40:41;;;;;;;4.30;2.47;;;;;;;46.67;12.47;100241.31;5074046;28;20056;-62